This is the latest recevied weather packets stored in our database for station/object KE7KUS-14. If no packets are shown the sender has not sent any weather packets the latest 10 day(s).
| Time | Temp. | Humidity | Pressure | Rain* | Wind** | Luminosity | Snow |
|---|---|---|---|---|---|---|---|
| 1778146324 | 6.67° C | 34% | 1027.6 hPa | 0 mm | - | 0 W/m² | - |
| 1778143941 | 6.11° C | 36% | 1027.6 hPa | 0 mm | - | 0 W/m² | - |
| 1778139700 | 7.22° C | 33% | 1027.7 hPa | 0 mm | - | 0 W/m² | - |
| 1778139115 | 6.67° C | 32% | 1027.6 hPa | 0 mm | - | 0 W/m² | - |
| 1778136710 | 6.67° C | 32% | 1028.1 hPa | 0 mm | - | 0 W/m² | - |
| 1778133723 | 6.67° C | 34% | 1028.3 hPa | 0 mm | - | 0 W/m² | - |
| 1778130754 | 6.67° C | 34% | 1028 hPa | 0 mm | - | 0 W/m² | - |
| 1778130148 | 6.67° C | 34% | 1027.8 hPa | 0 mm | - | 0 W/m² | - |
| 1778128330 | 7.22° C | 34% | 1027.7 hPa | 0 mm | - | 0 W/m² | - |
| 1778122356 | 8.33° C | 33% | 1026.2 hPa | 0 mm | - | 0 W/m² | - |
| 1778119325 | 11.67° C | 25% | 1025.6 hPa | 0 mm | - | 0 W/m² | - |
| 1778118720 | 12.78° C | 23% | 1025.4 hPa | 0 mm | - | 2 W/m² | - |
| 1778117551 | 13.89° C | 21% | 1025.1 hPa | 0 mm | - | 12 W/m² | - |
| 1778116318 | 15.56° C | 19% | 1025.1 hPa | 0 mm | - | 38 W/m² | - |
| 1778115149 | 15.56° C | 19% | 1024.7 hPa | 0 mm | - | 75 W/m² | - |
| 1778107943 | 16.11° C | 21% | 1024.4 hPa | 0 mm | - | 441 W/m² | - |
| 1778105540 | 15.56° C | 22% | 1024.5 hPa | 0 mm | - | 580 W/m² | - |
| 1778102553 | 15.56° C | 22% | 1024.6 hPa | 0 mm | - | 645 W/m² | - |
| 1778101320 | 15.56° C | 23% | 1024.7 hPa | 0 mm | - | 653 W/m² | - |
| 1778098331 | 15.56° C | 21% | 1025 hPa | 0 mm | - | 736 W/m² | - |
| 1778094715 | 14.44° C | 23% | 1024.7 hPa | 0 mm | - | 720 W/m² | - |
| 1778093527 | 13.89° C | 23% | 1025 hPa | 0 mm | - | 723 W/m² | - |
| 1778092291 | 13.33° C | 25% | 1025.1 hPa | 0 mm | - | 736 W/m² | - |
| 1778090474 | 13.89° C | 26% | 1025.5 hPa | 0 mm | - | 684 W/m² | - |
| 1778086901 | 12.78° C | 31% | 1025.5 hPa | 0 mm | - | 814 W/m² | - |
* Rain latest hour (hover to see other rain measurements)
** Current wind speed in m/s (hover to see current wind gust speed)